Time;durP1;ratioP1;P1;durP2;ratioP2;P2;SDS_P1;SDS_P2;PMS_P1;PMS_P2;Temp;Humidity;BMP_temperature;BMP_pressure;BME280_temperature;BME280_humidity;BME280_pressure;Samples;Min_cycle;Max_cycle;Signal;HPM_P1;HPM_P2
2023/12/13 00:00:18;;;;;;;9.48;4.65;;;10.10;94.00;;;;;;9179369;19;20019;-75
2023/12/13 00:03:26;;;;;;;9.50;4.90;;;10.00;94.40;;;;;;9179226;19;20123;-74
2023/12/13 00:06:35;;;;;;;8.25;4.38;;;10.00;95.00;;;;;;9179689;19;20086;-73
2023/12/13 00:09:44;;;;;;;13.15;5.82;;;9.80;91.30;;;;;;9176596;19;20022;-72
2023/12/13 00:12:49;;;;;;;9.65;4.93;;;9.90;91.60;;;;;;9174881;19;20025;-74
2023/12/13 00:15:57;;;;;;;8.15;4.88;;;9.80;91.60;;;;;;9180224;19;20018;-74
2023/12/13 00:19:04;;;;;;;8.93;4.57;;;9.80;91.50;;;;;;9180842;19;20587;-75
2023/12/13 00:22:15;;;;;;;9.50;5.03;;;9.80;91.60;;;;;;9179533;19;20021;-76
2023/12/13 00:25:21;;;;;;;9.70;4.63;;;9.80;91.60;;;;;;9181184;19;20509;-74
2023/12/13 00:28:29;;;;;;;11.07;5.95;;;9.80;91.60;;;;;;9175330;19;20018;-74
2023/12/13 00:31:34;;;;;;;11.73;5.22;;;9.80;91.60;;;;;;9178966;19;20025;-74
2023/12/13 00:34:43;;;;;;;11.88;4.90;;;9.90;91.70;;;;;;9175151;19;20369;-75
2023/12/13 00:37:51;;;;;;;8.82;4.97;;;9.90;91.60;;;;;;9178742;19;20034;-75
2023/12/13 00:41:00;;;;;;;10.32;4.70;;;9.80;91.70;;;;;;9179401;19;20800;-75
2023/12/13 00:44:07;;;;;;;8.18;5.10;;;9.90;91.90;;;;;;9178021;19;20018;-75
2023/12/13 00:47:15;;;;;;;9.02;4.90;;;9.80;91.70;;;;;;9179096;19;20034;-75
2023/12/13 00:50:22;;;;;;;12.27;4.88;;;9.80;91.70;;;;;;9181412;19;20019;-74
2023/12/13 00:53:33;;;;;;;18.75;5.35;;;9.80;91.90;;;;;;9176230;19;20602;-75
2023/12/13 00:56:39;;;;;;;10.75;5.15;;;9.80;91.90;;;;;;9180417;19;20026;-76
2023/12/13 00:59:46;;;;;;;9.60;4.70;;;9.80;91.90;;;;;;9176638;19;20014;-74
2023/12/13 01:02:53;;;;;;;11.73;4.88;;;9.80;92.00;;;;;;9180238;19;20046;-75
2023/12/13 01:06:02;;;;;;;9.88;5.22;;;9.90;92.50;;;;;;9175469;19;20011;-74
2023/12/13 01:09:11;;;;;;;13.20;5.25;;;9.90;92.30;;;;;;9178042;19;20026;-75
2023/12/13 01:12:18;;;;;;;14.88;5.50;;;9.90;92.60;;;;;;9174676;19;20023;-73
2023/12/13 01:15:24;;;;;;;9.00;4.72;;;9.90;93.70;;;;;;9173121;19;20019;-74
2023/12/13 01:18:31;;;;;;;16.05;5.20;;;9.90;95.90;;;;;;9178732;19;20670;-74
2023/12/13 01:21:37;;;;;;;10.48;5.00;;;10.00;94.50;;;;;;9178686;19;20025;-73
2023/12/13 01:24:47;;;;;;;10.40;4.95;;;9.70;91.50;;;;;;9177663;19;20018;-72
2023/12/13 01:27:54;;;;;;;8.88;4.63;;;9.70;91.50;;;;;;9171870;19;20026;-72
2023/12/13 01:31:03;;;;;;;12.52;4.43;;;9.80;91.50;;;;;;9176603;19;20018;-72
2023/12/13 01:34:09;;;;;;;9.65;4.75;;;9.70;91.50;;;;;;9177039;19;20019;-73
2023/12/13 01:37:19;;;;;;;8.20;5.10;;;9.70;91.50;;;;;;9176479;19;20022;-73
2023/12/13 01:40:27;;;;;;;18.70;6.03;;;9.70;91.50;;;;;;9176261;19;20038;-73
2023/12/13 01:43:36;;;;;;;11.68;5.85;;;9.80;91.50;;;;;;9175053;19;20029;-74
2023/12/13 01:46:43;;;;;;;7.68;4.50;;;9.70;91.50;;;;;;9177871;19;20404;-72
2023/12/13 01:49:51;;;;;;;9.88;4.70;;;9.70;91.50;;;;;;9178727;19;20010;-73
2023/12/13 01:52:58;;;;;;;8.55;4.57;;;9.70;91.60;;;;;;9176527;19;20484;-73
2023/12/13 01:56:10;;;;;;;11.38;5.60;;;9.70;91.50;;;;;;9171569;19;20026;-73
2023/12/13 01:59:16;;;;;;;12.23;4.95;;;9.70;91.50;;;;;;9175866;19;20026;-73
2023/12/13 02:02:24;;;;;;;12.90;5.00;;;9.70;91.50;;;;;;9175264;19;20591;-72
2023/12/13 02:05:32;;;;;;;12.75;4.57;;;9.70;91.50;;;;;;9173851;19;20018;-72
2023/12/13 02:08:40;;;;;;;11.45;4.63;;;9.70;91.50;;;;;;9177680;19;20469;-73
2023/12/13 02:11:49;;;;;;;10.00;5.05;;;9.70;91.50;;;;;;9172638;19;20022;-72
2023/12/13 02:14:57;;;;;;;12.88;4.47;;;9.70;91.50;;;;;;9174296;19;20018;-73
2023/12/13 02:18:04;;;;;;;9.43;4.38;;;9.60;91.50;;;;;;9172477;19;20472;-73
2023/12/13 02:21:12;;;;;;;9.90;5.15;;;9.70;91.50;;;;;;9176019;19;20015;-71
2023/12/13 02:24:24;;;;;;;10.00;4.75;;;9.70;91.50;;;;;;9175449;19;20495;-74
2023/12/13 02:27:32;;;;;;;9.02;4.70;;;9.60;91.50;;;;;;9168416;19;20045;-74
2023/12/13 02:30:38;;;;;;;9.60;4.75;;;9.60;91.50;;;;;;9174048;19;20025;-72
2023/12/13 02:33:45;;;;;;;10.40;4.40;;;9.70;91.50;;;;;;9175343;19;20010;-73
2023/12/13 02:36:51;;;;;;;10.90;5.20;;;9.60;91.50;;;;;;9172311;19;20026;-72
2023/12/13 02:40:03;;;;;;;14.60;5.45;;;9.70;91.60;;;;;;9173597;19;20021;-74
2023/12/13 02:43:08;;;;;;;9.80;4.75;;;9.70;91.60;;;;;;9173800;19;20021;-72
2023/12/13 02:46:16;;;;;;;11.82;5.38;;;9.70;91.50;;;;;;9173815;19;20010;-72
2023/12/13 02:49:24;;;;;;;11.80;5.53;;;9.70;91.50;;;;;;9175416;19;20025;-73
2023/12/13 02:52:32;;;;;;;13.43;5.80;;;9.70;91.60;;;;;;9173421;19;20840;-72
2023/12/13 02:55:40;;;;;;;10.48;5.78;;;9.70;91.50;;;;;;9174302;19;20014;-73
2023/12/13 02:58:48;;;;;;;16.02;6.57;;;9.70;91.60;;;;;;9171599;19;20388;-72
2023/12/13 03:01:54;;;;;;;14.82;6.53;;;9.60;91.50;;;;;;9171668;19;20019;-72
2023/12/13 03:05:03;;;;;;;11.45;6.35;;;9.70;91.60;;;;;;9173512;19;20017;-73
2023/12/13 03:08:09;;;;;;;16.50;6.88;;;9.70;91.60;;;;;;9172127;19;20018;-73
2023/12/13 03:11:20;;;;;;;12.93;7.15;;;9.70;91.60;;;;;;9172321;19;20102;-72
2023/12/13 03:14:25;;;;;;;17.63;7.10;;;9.70;91.60;;;;;;9173440;19;20823;-71
2023/12/13 03:17:33;;;;;;;14.63;6.07;;;9.70;91.60;;;;;;9171063;19;20018;-74
2023/12/13 03:20:39;;;;;;;13.57;6.88;;;9.70;91.60;;;;;;9174153;19;20018;-74
2023/12/13 03:23:47;;;;;;;12.88;6.10;;;9.70;91.60;;;;;;9174405;19;20015;-72
2023/12/13 03:26:55;;;;;;;16.27;6.28;;;9.70;91.60;;;;;;9168767;19;20019;-72
2023/12/13 03:30:04;;;;;;;15.77;6.57;;;9.70;91.60;;;;;;9180506;19;20098;-72
2023/12/13 03:33:09;;;;;;;13.20;6.38;;;9.70;91.60;;;;;;9180486;19;20022;-71
2023/12/13 03:36:17;;;;;;;16.00;6.60;;;9.70;91.60;;;;;;9180080;19;20273;-72
2023/12/13 03:39:22;;;;;;;10.63;6.10;;;9.70;91.60;;;;;;9182173;19;20039;-72
2023/12/13 03:42:33;;;;;;;15.80;5.85;;;9.70;91.60;;;;;;9182440;19;20791;-71
2023/12/13 03:45:38;;;;;;;13.18;6.35;;;9.70;91.60;;;;;;9181758;19;20022;-76
2023/12/13 03:48:46;;;;;;;10.48;5.20;;;9.70;91.60;;;;;;9182260;19;20325;-77
2023/12/13 03:51:51;;;;;;;12.45;5.72;;;9.70;91.60;;;;;;9182648;19;20377;-77
2023/12/13 03:54:59;;;;;;;10.68;5.43;;;9.70;91.60;;;;;;9176478;19;20088;-77
2023/12/13 03:58:07;;;;;;;15.40;5.57;;;9.70;91.60;;;;;;9181128;19;20508;-74
2023/12/13 04:01:14;;;;;;;11.98;5.55;;;9.70;91.60;;;;;;9182469;19;20010;-77
2023/12/13 04:04:20;;;;;;;9.27;5.22;;;9.70;91.50;;;;;;9182260;19;20026;-75
2023/12/13 04:07:27;;;;;;;7.10;4.30;;;9.70;91.50;;;;;;9182326;19;20007;-78
2023/12/13 04:10:35;;;;;;;13.75;4.65;;;9.70;91.60;;;;;;9179566;19;20048;-78
2023/12/13 04:13:46;;;;;;;13.93;5.05;;;9.70;91.60;;;;;;9179540;19;20017;-76
2023/12/13 04:16:52;;;;;;;7.53;4.35;;;9.60;91.60;;;;;;9178679;19;20029;-76
2023/12/13 04:20:00;;;;;;;7.65;4.35;;;9.60;91.60;;;;;;9179925;19;20369;-78
2023/12/13 04:23:06;;;;;;;10.23;4.03;;;9.60;91.60;;;;;;9178851;19;20442;-76
2023/12/13 04:26:14;;;;;;;11.35;4.43;;;9.60;91.60;;;;;;9181677;19;20598;-77
2023/12/13 04:29:23;;;;;;;8.80;3.95;;;9.60;91.60;;;;;;9174440;19;20046;-77
2023/12/13 04:32:31;;;;;;;14.75;3.95;;;9.70;91.60;;;;;;9179385;19;20041;-76
2023/12/13 04:35:36;;;;;;;8.15;3.92;;;9.60;91.60;;;;;;9179481;19;20022;-77
2023/12/13 04:38:44;;;;;;;7.72;3.53;;;9.60;91.60;;;;;;9179359;19;20025;-76
2023/12/13 04:41:49;;;;;;;11.57;3.67;;;9.60;91.60;;;;;;9177966;19;20018;-77
2023/12/13 04:44:59;;;;;;;7.00;2.80;;;9.70;92.20;;;;;;9180124;19;20022;-76
2023/12/13 04:48:05;;;;;;;15.55;3.50;;;9.70;92.10;;;;;;9177971;19;20027;-76
2023/12/13 04:51:13;;;;;;;5.35;3.40;;;9.60;91.80;;;;;;9177504;19;20017;-76
2023/12/13 04:54:19;;;;;;;7.93;3.25;;;9.60;91.90;;;;;;9179221;19;20022;-77
2023/12/13 04:57:26;;;;;;;8.52;2.92;;;9.70;92.50;;;;;;9178510;19;20022;-75
2023/12/13 05:00:34;;;;;;;7.40;2.63;;;9.70;92.60;;;;;;9178012;19;20022;-76
2023/12/13 05:03:42;;;;;;;6.75;2.92;;;9.70;93.10;;;;;;9176261;19;20030;-75
2023/12/13 05:06:50;;;;;;;10.38;3.75;;;9.70;99.20;;;;;;9177713;19;20407;-76
2023/12/13 05:09:58;;;;;;;5.22;2.70;;;9.80;94.60;;;;;;9178658;19;20025;-76
2023/12/13 05:13:09;;;;;;;10.85;2.97;;;9.70;93.20;;;;;;9175867;19;20061;-76
2023/12/13 05:16:20;;;;;;;5.20;2.60;;;9.70;92.90;;;;;;9174667;19;20273;-76
2023/12/13 05:19:26;;;;;;;8.13;3.00;;;9.80;93.30;;;;;;9177675;19;20613;-77
2023/12/13 05:22:34;;;;;;;4.50;2.42;;;9.70;93.40;;;;;;9178623;19;20014;-76
2023/12/13 05:25:40;;;;;;;5.40;2.90;;;9.70;94.30;;;;;;9178358;19;20081;-76
2023/12/13 05:28:48;;;;;;;5.80;3.13;;;9.80;95.70;;;;;;9172803;19;20070;-76
2023/12/13 05:31:56;;;;;;;8.60;2.80;;;9.70;95.70;;;;;;9179715;19;20730;-76
2023/12/13 05:35:04;;;;;;;7.55;3.05;;;9.70;94.40;;;;;;9174958;19;20014;-76
2023/12/13 05:38:09;;;;;;;8.73;3.83;;;9.60;94.70;;;;;;9176568;19;20018;-77
2023/12/13 05:41:17;;;;;;;4.05;2.78;;;9.90;95.80;;;;;;9177303;19;20018;-77
2023/12/13 05:44:23;;;;;;;4.18;2.75;;;9.70;96.60;;;;;;9176016;19;20018;-76
2023/12/13 05:47:34;;;;;;;6.18;3.42;;;9.60;94.40;;;;;;9174654;19;20014;-77
2023/12/13 05:50:40;;;;;;;8.52;3.08;;;9.60;94.80;;;;;;9175475;19;20041;-76
2023/12/13 05:53:48;;;;;;;10.20;3.38;;;9.80;93.70;;;;;;9176147;19;20021;-76
2023/12/13 05:56:54;;;;;;;6.93;3.42;;;9.70;93.60;;;;;;9174332;19;20362;-76
2023/12/13 06:00:06;;;;;;;13.23;3.75;;;9.70;93.80;;;;;;9177650;19;20014;-77
2023/12/13 06:03:17;;;;;;;8.38;3.83;;;9.60;94.00;;;;;;9178655;19;20094;-76
2023/12/13 06:06:24;;;;;;;9.48;3.85;;;9.70;94.10;;;;;;9173526;19;20014;-72
2023/12/13 06:09:30;;;;;;;5.95;3.53;;;9.60;94.10;;;;;;9176968;19;20065;-73
2023/12/13 06:12:37;;;;;;;13.15;5.20;;;9.70;94.40;;;;;;9175628;19;20788;-74
2023/12/13 06:15:43;;;;;;;12.18;4.88;;;9.70;95.30;;;;;;9174720;19;20019;-73
2023/12/13 06:18:53;;;;;;;6.28;3.67;;;9.70;95.90;;;;;;9174066;19;20015;-73
2023/12/13 06:22:00;;;;;;;8.05;4.10;;;9.70;97.40;;;;;;9175534;19;20025;-73
2023/12/13 06:25:09;;;;;;;12.82;4.10;;;9.80;96.20;;;;;;9176099;19;20006;-73
2023/12/13 06:28:14;;;;;;;9.10;4.20;;;9.70;94.70;;;;;;9171759;19;20014;-73
2023/12/13 06:31:23;;;;;;;9.43;3.92;;;;;;;;;;9174364;19;20025;-73
2023/12/13 06:34:31;;;;;;;5.82;4.20;;;9.70;92.60;;;;;;9173941;19;20030;-73
2023/12/13 06:37:39;;;;;;;10.40;4.25;;;9.60;93.40;;;;;;9175083;19;20014;-73
2023/12/13 06:40:45;;;;;;;12.93;4.43;;;9.70;94.70;;;;;;9171911;19;20045;-73
2023/12/13 06:43:53;;;;;;;10.25;3.90;;;9.70;94.00;;;;;;9172177;19;20025;-74
2023/12/13 06:46:59;;;;;;;6.93;4.50;;;9.60;93.80;;;;;;9174935;19;20026;-73
2023/12/13 06:50:10;;;;;;;9.98;4.40;;;9.70;93.90;;;;;;9174036;19;20605;-73
2023/12/13 06:53:16;;;;;;;10.40;4.57;;;9.70;93.50;;;;;;9174205;19;20026;-72
2023/12/13 06:56:23;;;;;;;8.13;4.53;;;9.70;94.10;;;;;;9174057;19;20728;-73
2023/12/13 06:59:29;;;;;;;10.07;5.15;;;9.70;93.80;;;;;;9173862;19;20094;-72
2023/12/13 07:02:36;;;;;;;12.25;5.32;;;9.70;93.70;;;;;;9171575;19;20017;-71
2023/12/13 07:05:45;;;;;;;11.40;7.47;;;9.70;93.70;;;;;;9175131;19;20030;-73
2023/12/13 07:08:53;;;;;;;11.23;5.47;;;9.70;93.70;;;;;;9171311;19;20023;-74
2023/12/13 07:11:59;;;;;;;10.50;5.50;;;9.80;93.80;;;;;;9171188;19;20041;-72
2023/12/13 07:15:10;;;;;;;13.65;5.32;;;9.70;93.70;;;;;;9168621;19;20017;-72
2023/12/13 07:18:18;;;;;;;10.90;5.85;;;9.70;93.50;;;;;;9171128;19;20063;-72
2023/12/13 07:24:47;;;;;;;11.40;5.93;;;9.90;93.70;;;;;;9172971;19;20607;-73
2023/12/13 07:27:55;;;;;;;11.13;7.43;;;9.80;93.60;;;;;;9165340;19;20006;-73
2023/12/13 07:31:04;;;;;;;11.80;6.38;;;9.80;93.50;;;;;;9170493;19;20018;-73
2023/12/13 07:34:18;;;;;;;15.68;6.65;;;9.80;93.90;;;;;;9171811;19;20022;-73
2023/12/13 07:37:27;;;;;;;12.52;6.80;;;9.80;94.00;;;;;;9172851;19;20021;-73
2023/12/13 07:40:35;;;;;;;8.77;6.35;;;9.90;95.20;;;;;;9169362;19;20014;-72
2023/12/13 07:43:40;;;;;;;19.15;9.15;;;9.60;91.90;;;;;;9168950;19;20360;-72
2023/12/13 07:46:48;;;;;;;13.65;6.80;;;9.50;91.70;;;;;;9172123;19;20023;-73
2023/12/13 07:49:53;;;;;;;11.95;7.43;;;9.50;91.60;;;;;;9173360;19;20540;-73
2023/12/13 07:53:04;;;;;;;12.65;8.13;;;9.60;91.70;;;;;;9173158;19;20018;-73
2023/12/13 07:56:10;;;;;;;14.05;7.57;;;9.60;91.70;;;;;;9172991;19;20119;-73
2023/12/13 07:59:30;;;;;;;14.95;7.65;;;9.60;91.70;;;;;;9172140;19;20029;-74
2023/12/13 08:02:35;;;;;;;15.10;8.20;;;9.60;91.70;;;;;;9172485;19;20048;-73
2023/12/13 08:05:53;;;;;;;15.88;7.70;;;9.60;91.70;;;;;;9172425;19;20015;-72
2023/12/13 08:09:09;;;;;;;19.58;9.48;;;9.60;91.70;;;;;;9171713;19;20022;-72
2023/12/13 08:12:18;;;;;;;16.35;8.50;;;9.40;91.70;;;;;;9172760;19;20021;-71
2023/12/13 08:15:26;;;;;;;22.65;8.65;;;9.60;91.70;;;;;;9175992;19;20048;-73
2023/12/13 08:18:34;;;;;;;16.33;8.10;;;9.60;91.70;;;;;;9179213;19;20476;-72
2023/12/13 08:21:40;;;;;;;18.95;7.82;;;9.60;91.70;;;;;;9181397;19;20472;-71
2023/12/13 08:24:54;;;;;;;15.07;7.72;;;9.60;91.70;;;;;;9185063;19;20115;-79
2023/12/13 08:28:00;;;;;;;16.63;9.00;;;9.70;91.80;;;;;;9182619;19;20454;-80
2023/12/13 08:31:17;;;;;;;12.95;8.25;;;9.60;92.10;;;;;;9185312;19;20018;-80
2023/12/13 08:34:32;;;;;;;15.30;8.30;;;9.60;91.70;;;;;;9187535;19;20024;-80
2023/12/13 08:37:49;;;;;;;16.92;10.25;;;9.70;91.80;;;;;;9185189;19;20044;-80
2023/12/13 08:40:58;;;;;;;15.57;8.48;;;9.60;91.80;;;;;;9185106;19;20026;-81
2023/12/13 08:44:17;;;;;;;20.17;9.02;;;9.80;91.90;;;;;;9184869;19;20037;-83
2023/12/13 08:47:24;;;;;;;18.63;8.57;;;9.70;92.10;;;;;;9186680;19;20752;-81
2023/12/13 08:50:40;;;;;;;19.85;9.18;;;9.90;92.00;;;;;;9187284;19;20068;-82
2023/12/13 08:53:56;;;;;;;18.63;8.25;;;9.80;92.30;;;;;;9187547;19;20014;-81
2023/12/13 08:57:09;;;;;;;18.42;8.45;;;9.80;91.70;;;;;;9185344;19;20007;-81
2023/12/13 09:00:28;;;;;;;;;;;9.80;91.80;;;;;;9185194;19;20010;-81
2023/12/13 09:03:38;;;;;;;15.80;8.68;;;9.80;92.00;;;;;;9184449;19;19922;-81
2023/12/13 09:06:43;;;;;;;17.27;9.27;;;9.90;92.00;;;;;;9177819;19;20081;-72
2023/12/13 09:09:51;;;;;;;17.48;9.68;;;9.70;91.80;;;;;;9179942;19;20018;-71
2023/12/13 09:13:01;;;;;;;19.80;9.48;;;9.80;92.00;;;;;;9180587;19;20468;-72
2023/12/13 09:16:12;;;;;;;18.08;9.15;;;9.70;91.70;;;;;;9181889;19;20011;-72
2023/12/13 09:19:19;;;;;;;18.42;9.60;;;9.70;91.70;;;;;;9176349;19;20022;-73
2023/12/13 09:22:32;;;;;;;19.77;10.52;;;9.70;91.70;;;;;;9179442;19;20018;-71
2023/12/13 09:25:39;;;;;;;21.90;10.60;;;9.70;91.70;;;;;;9180655;19;20023;-71
2023/12/13 09:28:49;;;;;;;18.15;10.35;;;9.70;91.70;;;;;;9174307;19;20376;-74
2023/12/13 09:31:58;;;;;;;21.83;12.07;;;9.70;91.70;;;;;;9178202;19;20052;-73
2023/12/13 09:35:07;;;;;;;25.17;12.43;;;9.80;91.70;;;;;;9175813;19;20388;-71
2023/12/13 09:38:13;;;;;;;18.05;10.35;;;9.80;91.70;;;;;;9177445;19;20023;-74
2023/12/13 09:41:27;;;;;;;18.38;9.95;;;9.80;91.70;;;;;;9176528;19;20360;-74
2023/12/13 09:44:39;;;;;;;15.63;10.00;;;9.80;91.70;;;;;;9178664;19;20484;-74
2023/12/13 09:47:49;;;;;;;19.25;11.48;;;9.80;91.70;;;;;;9179282;19;20219;-74
2023/12/13 09:50:57;;;;;;;17.45;9.88;;;9.80;91.70;;;;;;9174323;19;20519;-73
2023/12/13 09:54:07;;;;;;;17.50;9.65;;;9.80;91.70;;;;;;9177685;19;20018;-73
2023/12/13 09:57:14;;;;;;;17.38;10.07;;;9.80;91.70;;;;;;9177934;19;20472;-74
2023/12/13 10:00:27;;;;;;;16.42;9.57;;;9.80;91.70;;;;;;9174522;19;20021;-73
2023/12/13 10:03:36;;;;;;;20.65;11.00;;;9.80;91.70;;;;;;9179591;19;20014;-74
2023/12/13 10:06:45;;;;;;;22.98;10.65;;;9.90;91.80;;;;;;9179831;19;20022;-75
2023/12/13 10:09:55;;;;;;;19.38;11.02;;;9.90;91.80;;;;;;9177427;19;20022;-74
2023/12/13 10:13:06;;;;;;;20.35;11.10;;;9.90;91.80;;;;;;9174222;19;20019;-74
2023/12/13 10:16:16;;;;;;;20.23;11.70;;;9.90;91.80;;;;;;9176168;19;20021;-73
2023/12/13 10:19:24;;;;;;;19.38;11.23;;;10.20;93.70;;;;;;9176764;19;20029;-73
2023/12/13 10:22:30;;;;;;;21.92;11.43;;;9.90;91.80;;;;;;9176393;19;20022;-74
2023/12/13 10:25:50;;;;;;;18.02;10.55;;;10.00;93.40;;;;;;9174387;19;20014;-75
2023/12/13 10:29:12;;;;;;;22.40;11.68;;;10.50;92.20;;;;;;9171717;19;20035;-73
2023/12/13 10:32:38;;;;;;;21.52;11.68;;;10.00;91.80;;;;;;9176223;19;20021;-74
2023/12/13 10:35:53;;;;;;;24.52;12.00;;;10.00;91.80;;;;;;9175654;19;20022;-74
2023/12/13 10:39:02;;;;;;;25.45;14.00;;;10.00;91.80;;;;;;9175120;19;20718;-74
2023/12/13 10:42:10;;;;;;;23.52;13.48;;;10.00;91.80;;;;;;9176916;19;20836;-73
2023/12/13 10:45:17;;;;;;;31.95;13.43;;;10.10;91.80;;;;;;9175331;19;20018;-73
2023/12/13 10:48:35;;;;;;;26.75;12.95;;;10.10;91.80;;;;;;9175261;19;20018;-75
2023/12/13 10:51:51;;;;;;;25.45;12.68;;;10.10;92.10;;;;;;9176642;19;20097;-74
2023/12/13 10:55:03;;;;;;;33.83;13.20;;;10.20;91.80;;;;;;9174306;19;20010;-73
2023/12/13 10:58:11;;;;;;;32.83;13.35;;;10.20;91.90;;;;;;9175494;19;20018;-74
2023/12/13 11:01:22;;;;;;;29.55;13.20;;;10.20;91.80;;;;;;9171234;19;20018;-73
2023/12/13 11:04:34;;;;;;;24.35;13.52;;;10.30;91.90;;;;;;9172136;19;20908;-74
2023/12/13 11:07:47;;;;;;;31.38;13.48;;;10.30;91.90;;;;;;9174243;19;20109;-74
2023/12/13 11:11:02;;;;;;;30.38;13.95;;;10.30;91.90;;;;;;9175083;19;20021;-74
2023/12/13 11:14:09;;;;;;;30.63;13.45;;;10.40;91.90;;;;;;9175514;19;20014;-74
2023/12/13 11:17:17;;;;;;;21.50;13.18;;;10.40;91.90;;;;;;9174818;19;20018;-75
2023/12/13 11:20:26;;;;;;;22.88;12.57;;;10.40;91.90;;;;;;9174731;19;20078;-74
2023/12/13 11:23:35;;;;;;;23.60;13.57;;;10.50;91.90;;;;;;9170593;19;20014;-74
2023/12/13 11:26:42;;;;;;;25.05;12.70;;;10.50;92.20;;;;;;9170093;19;20025;-74
2023/12/13 11:29:52;;;;;;;24.33;12.60;;;10.60;91.90;;;;;;9174085;19;20034;-74
2023/12/13 11:32:58;;;;;;;28.17;12.55;;;10.60;91.90;;;;;;9172820;19;20089;-74
2023/12/13 11:36:21;;;;;;;27.33;12.02;;;10.70;91.90;;;;;;9173816;19;20014;-74
2023/12/13 11:39:29;;;;;;;22.83;11.88;;;10.70;91.90;;;;;;9172968;19;20015;-73
2023/12/13 11:42:37;;;;;;;33.17;12.38;;;10.70;91.90;;;;;;9170849;19;20026;-75
2023/12/13 11:45:50;;;;;;;24.13;12.07;;;10.80;91.90;;;;;;9171877;19;20370;-74
2023/12/13 11:48:58;;;;;;;19.35;10.65;;;10.80;91.90;;;;;;9172233;19;20026;-73
2023/12/13 11:52:08;;;;;;;24.83;10.77;;;10.80;91.90;;;;;;9180459;19;20372;-74
2023/12/13 11:55:15;;;;;;;25.05;10.57;;;10.80;91.90;;;;;;9182166;19;20018;-74
2023/12/13 11:58:25;;;;;;;22.75;10.82;;;10.90;92.00;;;;;;9180595;19;20828;-74
2023/12/13 12:01:33;;;;;;;22.95;11.45;;;10.90;91.90;;;;;;9181137;19;20362;-74
2023/12/13 12:04:39;;;;;;;25.70;10.65;;;10.90;92.00;;;;;;9184314;19;20078;-74
2023/12/13 12:07:58;;;;;;;21.52;12.07;;;10.90;92.00;;;;;;9180216;19;20015;-75
2023/12/13 12:11:03;;;;;;;27.83;12.32;;;11.00;92.00;;;;;;9183427;19;20011;-74
2023/12/13 12:14:12;;;;;;;23.42;11.43;;;11.00;92.20;;;;;;9181729;19;20384;-74
2023/12/13 12:17:19;;;;;;;21.23;10.32;;;11.10;92.30;;;;;;9183375;19;20105;-73
2023/12/13 12:20:27;;;;;;;19.80;10.75;;;11.10;92.60;;;;;;9180504;19;20006;-74
2023/12/13 12:23:36;;;;;;;26.20;11.18;;;11.10;92.80;;;;;;9180347;19;20019;-74
2023/12/13 12:26:44;;;;;;;22.15;11.52;;;11.20;92.70;;;;;;9177384;19;20086;-73
2023/12/13 12:29:52;;;;;;;23.13;10.93;;;11.10;92.80;;;;;;9177542;19;20022;-74
2023/12/13 12:33:01;;;;;;;21.40;10.73;;;11.20;93.00;;;;;;9182182;19;20014;-73
2023/12/13 12:36:08;;;;;;;31.30;11.45;;;11.10;92.50;;;;;;9179783;19;20480;-73
2023/12/13 12:39:18;;;;;;;27.40;10.70;;;11.10;91.90;;;;;;9179618;19;20014;-75
2023/12/13 12:42:23;;;;;;;19.02;10.63;;;11.00;91.90;;;;;;9179004;19;20010;-75
2023/12/13 12:45:31;;;;;;;25.25;11.75;;;11.00;91.90;;;;;;9178809;19;20372;-74
2023/12/13 12:48:37;;;;;;;22.90;11.20;;;11.00;91.90;;;;;;9179299;19;20098;-75
2023/12/13 12:51:45;;;;;;;25.98;11.43;;;11.10;91.90;;;;;;9179847;19;20018;-74
2023/12/13 12:54:53;;;;;;;18.80;10.45;;;11.20;92.00;;;;;;9181004;19;20359;-74
2023/12/13 12:58:01;;;;;;;18.52;9.20;;;11.10;92.00;;;;;;9181089;19;20030;-74
2023/12/13 13:01:06;;;;;;;19.63;10.85;;;11.20;92.10;;;;;;9178104;19;20011;-74
2023/12/13 13:04:15;;;;;;;15.68;8.95;;;11.10;92.20;;;;;;9180733;19;20161;-74
2023/12/13 13:07:20;;;;;;;13.32;8.95;;;11.20;92.60;;;;;;9180227;19;20025;-76
2023/12/13 13:10:31;;;;;;;16.17;8.15;;;11.10;92.60;;;;;;9180250;19;20021;-77
2023/12/13 13:13:39;;;;;;;13.07;8.38;;;11.20;92.80;;;;;;9179598;19;20006;-76
2023/12/13 13:16:47;;;;;;;16.38;8.73;;;11.20;93.20;;;;;;9177791;19;20014;-75
2023/12/13 13:19:52;;;;;;;16.40;9.68;;;11.30;94.70;;;;;;9179962;19;20026;-76
2023/12/13 13:23:00;;;;;;;18.52;10.25;;;11.90;93.20;;;;;;9175095;19;20661;-75
2023/12/13 13:26:10;;;;;;;15.82;9.15;;;11.30;92.50;;;;;;9179719;19;20022;-77
2023/12/13 13:29:18;;;;;;;18.35;8.73;;;11.10;92.10;;;;;;9174804;19;20023;-75
2023/12/13 13:32:24;;;;;;;15.80;10.05;;;11.10;92.00;;;;;;9180595;19;20014;-80
2023/12/13 13:35:33;;;;;;;17.45;7.63;;;11.00;92.20;;;;;;9176960;19;20025;-76
2023/12/13 13:38:39;;;;;;;13.85;8.13;;;11.10;91.90;;;;;;9179392;19;20549;-76
2023/12/13 13:41:49;;;;;;;14.90;8.05;;;11.00;91.80;;;;;;9175734;19;20018;-76
2023/12/13 13:44:55;;;;;;;13.48;8.02;;;11.20;92.00;;;;;;9177789;19;20377;-76
2023/12/13 13:48:03;;;;;;;17.25;9.40;;;11.10;91.90;;;;;;9178607;19;20025;-76
2023/12/13 13:51:08;;;;;;;19.83;9.25;;;11.10;91.90;;;;;;9178974;19;20010;-76
2023/12/13 13:54:16;;;;;;;17.60;9.50;;;11.00;92.00;;;;;;9176384;19;20010;-76
2023/12/13 13:57:24;;;;;;;18.27;9.65;;;11.00;92.20;;;;;;9177751;19;20019;-76
2023/12/13 14:00:31;;;;;;;21.50;12.25;;;11.10;92.80;;;;;;9177449;19;20018;-75
2023/12/13 14:03:37;;;;;;;27.75;13.82;;;11.10;92.90;;;;;;9178276;19;20010;-76
2023/12/13 14:06:45;;;;;;;26.85;13.43;;;11.20;93.20;;;;;;9175221;19;20013;-76
2023/12/13 14:09:50;;;;;;;31.52;13.70;;;11.20;93.20;;;;;;9179266;19;20027;-76
2023/12/13 14:13:00;;;;;;;23.60;11.27;;;11.00;93.10;;;;;;9172886;19;20368;-76
2023/12/13 14:16:07;;;;;;;20.40;9.60;;;11.10;93.70;;;;;;9174980;19;20014;-73
2023/12/13 14:19:15;;;;;;;18.63;8.73;;;11.40;96.00;;;;;;9177410;19;20015;-75
2023/12/13 14:22:21;;;;;;;21.35;9.27;;;10.90;91.70;;;;;;9172941;19;20023;-75
2023/12/13 14:25:29;;;;;;;21.10;10.27;;;10.90;91.80;;;;;;9176690;19;20018;-74
2023/12/13 14:28:38;;;;;;;18.08;10.50;;;10.90;91.70;;;;;;9171507;19;20103;-74
2023/12/13 14:31:46;;;;;;;16.38;10.00;;;10.90;91.70;;;;;;9177616;19;20354;-74
2023/12/13 14:34:52;;;;;;;18.25;10.25;;;10.90;91.70;;;;;;9176795;19;20018;-73
2023/12/13 14:38:00;;;;;;;22.10;10.77;;;10.80;91.70;;;;;;9176452;19;20019;-73
2023/12/13 14:41:06;;;;;;;18.13;11.50;;;10.90;91.70;;;;;;9175963;19;20025;-73
2023/12/13 14:44:18;;;;;;;21.90;11.32;;;10.80;92.30;;;;;;9174861;19;20024;-73
2023/12/13 14:47:24;;;;;;;21.88;11.90;;;11.00;93.30;;;;;;9174847;19;20110;-75
2023/12/13 14:50:31;;;;;;;26.70;12.40;;;10.90;93.60;;;;;;9173912;19;20349;-74
2023/12/13 14:53:37;;;;;;;26.00;12.55;;;11.00;94.40;;;;;;9176194;19;20014;-73
2023/12/13 14:56:46;;;;;;;25.45;11.27;;;10.70;91.80;;;;;;9175671;19;20011;-73
2023/12/13 14:59:54;;;;;;;29.70;13.40;;;10.70;91.60;;;;;;9174938;19;20014;-74
2023/12/13 15:03:04;;;;;;;20.00;11.80;;;10.70;91.60;;;;;;9174683;19;20017;-73
2023/12/13 15:06:11;;;;;;;27.02;11.80;;;10.70;91.60;;;;;;9174110;19;20022;-73
2023/12/13 15:09:19;;;;;;;22.60;11.18;;;10.70;91.60;;;;;;9173207;19;20007;-74
2023/12/13 15:12:24;;;;;;;22.45;11.50;;;10.70;91.60;;;;;;9174126;19;20047;-74
2023/12/13 15:15:43;;;;;;;24.67;11.82;;;10.70;91.60;;;;;;9175181;19;20378;-75
2023/12/13 15:18:49;;;;;;;24.38;12.35;;;10.70;91.60;;;;;;9175422;19;20294;-73
2023/12/13 15:21:58;;;;;;;27.60;11.55;;;10.70;91.60;;;;;;9172790;19;20026;-73
2023/12/13 15:25:04;;;;;;;21.48;12.45;;;10.70;91.60;;;;;;9186648;19;20014;-73
2023/12/13 15:28:21;;;;;;;23.73;11.65;;;10.60;91.60;;;;;;9188272;19;20049;-73
2023/12/13 15:31:29;;;;;;;23.05;13.57;;;10.70;91.90;;;;;;9190974;19;20023;-75
2023/12/13 15:34:38;;;;;;;23.65;12.93;;;10.60;91.70;;;;;;9190286;19;20019;-74
2023/12/13 15:37:43;;;;;;;22.85;12.05;;;10.60;91.60;;;;;;9189357;19;20139;-75
2023/12/13 15:40:52;;;;;;;26.92;13.48;;;10.60;91.60;;;;;;9190547;19;20022;-73
2023/12/13 15:43:57;;;;;;;27.40;13.20;;;10.60;91.60;;;;;;9187050;19;20123;-72
2023/12/13 15:47:08;;;;;;;26.60;13.38;;;10.50;91.60;;;;;;9190144;19;20011;-73
2023/12/13 15:50:14;;;;;;;29.15;14.10;;;10.50;91.60;;;;;;9192179;19;20025;-74
2023/12/13 15:53:22;;;;;;;31.20;14.25;;;10.50;91.60;;;;;;9189490;19;20014;-72
2023/12/13 15:56:27;;;;;;;26.33;14.75;;;10.50;91.60;;;;;;9192122;19;20022;-73
2023/12/13 15:59:35;;;;;;;31.63;13.68;;;10.50;91.60;;;;;;9189227;19;20019;-74
2023/12/13 16:02:43;;;;;;;29.75;13.52;;;10.40;91.50;;;;;;9190281;19;20014;-73
2023/12/13 16:05:51;;;;;;;25.13;13.27;;;10.50;91.60;;;;;;9189330;19;20014;-75
2023/12/13 16:08:57;;;;;;;25.73;14.70;;;10.50;91.60;;;;;;9190096;19;20010;-73
2023/12/13 16:12:04;;;;;;;25.92;13.45;;;10.50;91.60;;;;;;9191779;19;20026;-72
2023/12/13 16:15:11;;;;;;;26.83;14.95;;;10.40;91.60;;;;;;9192306;19;20026;-73
2023/12/13 16:18:21;;;;;;;24.13;13.75;;;10.40;91.80;;;;;;9191924;19;20022;-73